Time;durP1;ratioP1;P1;durP2;ratioP2;P2;SDS_P1;SDS_P2;PMS_P1;PMS_P2;Temp;Humidity;BMP_temperature;BMP_pressure;BME280_temperature;BME280_humidity;BME280_pressure;Samples;Min_cycle;Max_cycle;Signal;HPM_P1;HPM_P2
2022/04/12 00:01:07;;;;;;;10.27;4.90;;;;;;;10.76;52.39;101042.41;4900099;29;20048;-48
2022/04/12 00:03:35;;;;;;;9.45;5.47;;;;;;;10.75;52.12;101038.03;4898956;29;20611;-48
2022/04/12 00:06:03;;;;;;;7.68;4.22;;;;;;;10.71;52.63;101037.75;4898083;29;20057;-50
2022/04/12 00:08:30;;;;;;;9.20;5.05;;;;;;;10.69;52.12;101033.66;4898656;29;20041;-50
2022/04/12 00:10:58;;;;;;;8.65;5.10;;;;;;;10.64;52.45;101035.25;4898216;29;20049;-50
2022/04/12 00:13:26;;;;;;;11.32;5.20;;;;;;;10.60;52.46;101034.13;4897801;29;20083;-50
2022/04/12 00:15:54;;;;;;;11.05;5.15;;;;;;;10.59;52.29;101018.06;4898860;29;20045;-48
2022/04/12 00:21:07;;;;;;;9.82;5.03;;;;;;;10.57;52.29;101012.84;4899844;29;20045;-50
2022/04/12 00:23:36;;;;;;;8.20;4.50;;;;;;;10.61;51.93;101005.00;4899156;29;20088;-50
2022/04/12 00:26:03;;;;;;;7.40;4.45;;;;;;;10.62;51.97;101004.72;4898262;29;20056;-49
2022/04/12 00:28:31;;;;;;;8.02;4.32;;;;;;;10.64;51.93;100999.00;4898636;29;20059;-44
2022/04/12 00:30:58;;;;;;;10.45;4.63;;;;;;;10.66;51.54;100997.66;4900541;29;20416;-54
2022/04/12 00:33:26;;;;;;;11.30;4.68;;;;;;;10.68;51.48;101002.00;4898590;29;20408;-49
2022/04/12 00:35:56;;;;;;;9.95;4.53;;;;;;;10.62;51.46;101004.72;4897422;29;20041;-48
2022/04/12 00:38:24;;;;;;;8.95;4.50;;;;;;;10.60;51.71;101003.34;4898278;29;20526;-50
2022/04/12 00:40:53;;;;;;;8.77;4.40;;;;;;;10.58;51.45;100990.00;4898393;29;20041;-51
2022/04/12 00:43:25;;;;;;;8.93;4.47;;;;;;;10.57;52.03;100990.25;4898416;29;20048;-50
2022/04/12 00:45:52;;;;;;;10.25;4.88;;;;;;;10.55;51.33;100992.41;4897955;29;20044;-52
2022/04/12 00:48:20;;;;;;;8.60;4.38;;;;;;;10.50;51.77;100987.75;4898197;29;20048;-49
2022/04/12 00:50:48;;;;;;;7.82;4.30;;;;;;;10.47;52.19;100985.56;4899263;29;20044;-50
2022/04/12 00:53:15;;;;;;;6.43;3.67;;;;;;;10.43;52.30;100979.00;4897321;29;20408;-48
2022/04/12 00:55:43;;;;;;;7.00;4.63;;;;;;;10.42;52.45;100990.97;4898063;29;20048;-49
2022/04/12 00:58:11;;;;;;;9.40;4.47;;;;;;;10.37;52.73;100985.50;4898305;29;20056;-48
2022/04/12 01:00:39;;;;;;;6.90;4.13;;;;;;;10.38;52.52;100989.84;4902942;29;20119;-48
2022/04/12 01:03:06;;;;;;;9.07;4.75;;;;;;;10.39;52.72;100988.75;4917180;29;20044;-48
2022/04/12 01:05:36;;;;;;;10.38;4.97;;;;;;;10.37;52.68;100993.69;4918359;29;20056;-48
2022/04/12 01:08:04;;;;;;;11.00;4.63;;;;;;;10.39;52.73;100992.34;4907705;29;20510;-49
2022/04/12 01:10:33;;;;;;;9.43;4.40;;;;;;;10.37;53.09;100988.22;4886351;29;20044;-49
2022/04/12 01:13:01;;;;;;;10.27;4.38;;;;;;;10.35;52.75;100993.94;4896056;29;20412;-49
2022/04/12 01:15:29;;;;;;;7.97;4.55;;;;;;;10.32;52.97;101001.78;4902034;29;20127;-49
2022/04/12 01:17:57;;;;;;;8.20;4.40;;;;;;;10.31;53.27;101002.88;4901756;29;20048;-49
2022/04/12 01:20:29;;;;;;;7.88;4.30;;;;;;;10.32;53.17;100988.16;4901068;29;20531;-49
2022/04/12 01:23:12;;;;;;;8.00;4.50;;;;;;;10.28;53.41;100992.50;4900652;29;20052;-48
2022/04/12 01:25:40;;;;;;;7.18;4.43;;;;;;;10.24;53.49;100995.72;4900227;29;20049;-48
2022/04/12 01:28:09;;;;;;;8.32;4.28;;;;;;;10.26;53.36;100986.47;4901864;29;20048;-50
2022/04/12 01:30:37;;;;;;;9.43;4.32;;;;;;;10.27;53.80;100982.66;4908226;29;20059;-53
2022/04/12 01:33:05;;;;;;;12.27;4.38;;;;;;;10.27;53.46;100990.84;4909440;29;20056;-50
2022/04/12 01:35:33;;;;;;;8.57;4.45;;;;;;;10.25;54.16;100991.09;4901355;29;20060;-50
2022/04/12 01:38:01;;;;;;;10.13;4.72;;;;;;;10.28;53.67;100989.75;4900721;29;20045;-49
2022/04/12 01:40:29;;;;;;;9.93;4.30;;;;;;;10.27;53.86;100988.09;4909925;29;20127;-46
2022/04/12 01:42:57;;;;;;;8.02;4.57;;;;;;;10.23;54.05;100993.28;4920556;29;20140;-51
2022/04/12 01:45:25;;;;;;;8.07;4.53;;;;;;;10.16;53.90;100982.59;4912123;29;20125;-50
2022/04/12 01:47:53;;;;;;;8.90;4.47;;;;;;;10.14;54.20;100989.38;4901264;29;20048;-49
2022/04/12 01:50:21;;;;;;;7.82;4.07;;;;;;;10.15;54.24;100980.97;4901264;29;20056;-50
2022/04/12 01:52:48;;;;;;;8.73;4.60;;;;;;;10.18;54.14;100980.44;4900207;29;20045;-46
2022/04/12 01:55:16;;;;;;;8.25;4.40;;;;;;;10.14;54.34;100989.38;4900746;29;20048;-45
2022/04/12 01:57:45;;;;;;;10.13;4.97;;;;;;;10.10;54.39;100989.09;4900709;29;20044;-46
2022/04/12 02:00:13;;;;;;;10.13;4.88;;;;;;;10.07;54.54;100989.59;4900300;29;20143;-45
2022/04/12 02:02:41;;;;;;;9.82;4.25;;;;;;;10.05;54.75;100990.94;4906725;29;20040;-45
2022/04/12 02:05:09;;;;;;;8.10;4.72;;;;;;;10.03;54.80;100977.59;4904120;29;20531;-46
2022/04/12 02:07:37;;;;;;;8.63;4.90;;;;;;;10.00;55.13;100970.75;4901181;29;20092;-45
2022/04/12 02:10:05;;;;;;;12.57;4.78;;;;;;;10.01;54.96;100964.25;4901694;29;20049;-46
2022/04/12 02:12:32;;;;;;;8.25;4.82;;;;;;;9.97;55.17;100965.03;4901113;29;20055;-46
2022/04/12 02:15:00;;;;;;;9.55;4.72;;;;;;;9.93;55.12;100967.47;4899890;29;20045;-48
2022/04/12 02:17:28;;;;;;;10.95;4.78;;;;;;;9.96;55.57;100966.94;4913476;29;20049;-51
2022/04/12 02:19:56;;;;;;;9.02;5.13;;;;;;;9.96;55.25;100963.41;4884340;29;20167;-52
2022/04/12 02:22:24;;;;;;;10.68;4.60;;;;;;;9.96;55.35;100966.13;4912574;29;20052;-48
2022/04/12 02:24:52;;;;;;;9.82;4.70;;;;;;;9.98;55.13;100969.38;4900708;29;20488;-49
2022/04/12 02:27:19;;;;;;;9.27;4.53;;;;;;;10.01;54.95;100974.31;4901030;29;20410;-50
2022/04/12 02:29:47;;;;;;;9.75;4.82;;;;;;;10.01;55.07;100971.59;4907719;29;20040;-50
2022/04/12 02:32:14;;;;;;;9.88;4.95;;;;;;;10.00;54.96;100968.03;4919694;29;20397;-48
2022/04/12 02:34:42;;;;;;;11.27;4.93;;;;;;;10.00;55.33;100972.66;4900318;29;20048;-48
2022/04/12 02:37:09;;;;;;;10.13;5.53;;;;;;;9.96;55.10;100966.94;4899833;29;20052;-51
2022/04/12 02:39:37;;;;;;;7.93;4.85;;;;;;;9.94;55.65;100962.84;4901588;29;20052;-51
2022/04/12 02:42:05;;;;;;;11.40;5.60;;;;;;;9.91;55.39;100963.34;4899483;29;20408;-49
2022/04/12 02:44:33;;;;;;;9.65;5.05;;;;;;;9.91;55.81;100963.34;4899383;29;20059;-51
2022/04/12 02:47:00;;;;;;;10.23;5.43;;;;;;;9.91;56.00;100957.88;4900006;29;20055;-51
2022/04/12 02:49:28;;;;;;;8.05;4.60;;;;;;;9.91;55.74;100952.44;4906009;29;20051;-50
2022/04/12 02:51:55;;;;;;;9.18;4.90;;;;;;;9.90;56.02;100961.72;4919118;29;20045;-48
2022/04/12 02:54:23;;;;;;;9.30;5.25;;;;;;;9.92;55.88;100954.09;4901178;29;20056;-49
2022/04/12 02:56:51;;;;;;;8.02;4.93;;;;;;;9.92;55.84;100956.81;4898809;29;20037;-51
2022/04/12 02:59:18;;;;;;;9.00;5.18;;;;;;;9.90;55.75;100948.09;4900378;29;20053;-50
2022/04/12 03:01:46;;;;;;;9.95;5.22;;;;;;;9.86;56.00;100939.66;4912572;29;20132;-48
2022/04/12 03:04:14;;;;;;;9.40;5.13;;;;;;;9.90;56.10;100946.19;4900267;29;20143;-50
2022/04/12 03:06:42;;;;;;;11.68;5.50;;;;;;;9.86;56.22;100934.22;4898638;29;20112;-51
2022/04/12 03:09:09;;;;;;;10.98;5.35;;;;;;;9.83;56.28;100934.69;4905592;29;20063;-49
2022/04/12 03:11:38;;;;;;;9.48;5.40;;;;;;;9.82;56.33;100933.06;4905900;29;20043;-51
2022/04/12 03:14:08;;;;;;;9.82;5.35;;;;;;;9.78;56.62;100927.31;4900724;29;20049;-53
2022/04/12 03:16:35;;;;;;;11.25;5.75;;;;;;;9.77;56.66;100925.69;4915958;29;20051;-50
2022/04/12 03:19:03;;;;;;;9.27;5.13;;;;;;;9.74;56.59;100926.22;4902427;29;20063;-50
2022/04/12 03:21:30;;;;;;;11.68;5.70;;;;;;;9.71;57.01;100926.72;4918638;29;20411;-49
2022/04/12 03:23:58;;;;;;;10.32;5.32;;;;;;;9.73;56.92;100923.75;4903893;29;20044;-49
2022/04/12 03:26:26;;;;;;;12.25;5.80;;;;;;;9.78;56.90;100921.06;4897478;29;20044;-48
2022/04/12 03:28:53;;;;;;;10.98;5.45;;;;;;;9.75;57.22;100916.16;4898605;29;20044;-50
2022/04/12 03:31:21;;;;;;;10.15;5.53;;;;;;;9.71;57.02;100915.84;4899008;29;20044;-47
2022/04/12 03:33:49;;;;;;;10.15;5.15;;;;;;;9.65;57.58;100911.44;4899656;29;20051;-49
2022/04/12 03:36:17;;;;;;;10.23;5.55;;;;;;;9.61;57.42;100915.75;4899015;29;20048;-50
2022/04/12 03:38:51;;;;;;;13.30;6.63;;;;;;;9.55;57.95;100909.47;4900239;29;20075;-51
2022/04/12 03:41:22;;;;;;;10.35;5.60;;;;;;;9.55;58.07;100900.50;4880860;29;20397;-49
2022/04/12 03:43:53;;;;;;;10.52;6.25;;;;;;;9.58;57.49;100894.53;4903811;29;20452;-49
2022/04/12 03:46:20;;;;;;;10.68;5.82;;;;;;;9.55;58.00;100895.06;4899309;29;20049;-49
2022/04/12 03:48:48;;;;;;;13.05;5.95;;;;;;;9.54;57.77;100904.28;4898989;29;20048;-50
2022/04/12 03:51:20;;;;;;;14.15;6.13;;;;;;;9.51;58.09;100905.63;4898120;29;20408;-51
2022/04/12 03:53:47;;;;;;;10.57;5.45;;;;;;;9.51;58.53;100910.22;4898914;29;20052;-49
2022/04/12 03:56:15;;;;;;;14.07;6.03;;;;;;;9.52;58.37;100917.31;4898407;29;20057;-48
2022/04/12 03:58:43;;;;;;;9.45;5.82;;;;;;;9.51;58.27;100915.69;4900140;29;20044;-48
2022/04/12 04:01:11;;;;;;;10.70;5.68;;;;;;;9.46;58.18;100918.34;4906673;29;20389;-49
2022/04/12 04:03:39;;;;;;;14.55;6.00;;;;;;;9.45;58.62;100924.84;4897880;29;20135;-49
2022/04/12 04:06:06;;;;;;;13.07;6.25;;;;;;;9.48;58.71;100919.72;4897515;29;20044;-49
2022/04/12 04:08:34;;;;;;;10.85;6.10;;;;;;;9.53;58.44;100913.53;4902917;29;20078;-49
2022/04/12 04:11:02;;;;;;;11.20;6.72;;;;;;;9.48;59.13;100906.13;4907402;29;20559;-50
2022/04/12 04:13:36;;;;;;;9.25;5.82;;;;;;;9.42;59.13;100900.91;4896674;29;20037;-51
2022/04/12 04:16:05;;;;;;;11.48;6.45;;;;;;;9.34;59.58;100900.28;4897571;29;20044;-51
2022/04/12 04:18:34;;;;;;;10.98;6.15;;;;;;;9.28;59.80;100895.88;4882013;29;20045;-51
2022/04/12 04:21:02;;;;;;;11.10;5.90;;;;;;;9.24;60.23;100885.78;4897886;29;20044;-50
2022/04/12 04:23:29;;;;;;;11.05;6.40;;;;;;;9.23;59.84;100881.41;4898131;29;20098;-49
2022/04/12 04:25:57;;;;;;;10.20;6.20;;;;;;;9.20;59.85;100888.19;4897243;29;20092;-49
2022/04/12 04:28:29;;;;;;;11.00;6.70;;;;;;;9.19;60.65;100886.56;4898665;29;20052;-49
2022/04/12 04:30:57;;;;;;;11.35;6.50;;;;;;;9.23;59.77;100893.09;4898788;29;20041;-49
2022/04/12 04:33:25;;;;;;;11.05;6.22;;;;;;;9.27;59.86;100896.97;4878524;29;20053;-50
2022/04/12 04:35:52;;;;;;;10.40;6.03;;;;;;;9.29;60.26;100902.16;4879585;29;20064;-49
2022/04/12 04:38:20;;;;;;;10.73;6.00;;;;;;;9.31;59.93;100900.81;4894225;29;20048;-49
2022/04/12 04:40:49;;;;;;;13.02;6.90;;;;;;;9.33;60.00;100909.53;4906895;29;20047;-50
2022/04/12 04:43:16;;;;;;;11.10;6.53;;;;;;;9.33;60.49;100904.09;4898096;29;20048;-48
2022/04/12 04:45:44;;;;;;;11.20;6.70;;;;;;;9.37;60.12;100907.13;4898123;29;20051;-49
2022/04/12 04:48:12;;;;;;;14.68;6.60;;;;;;;9.38;59.65;100916.94;4898240;29;20419;-48
2022/04/12 04:50:40;;;;;;;10.52;6.63;;;;;;;9.38;60.08;100911.50;4897843;29;20518;-46
2022/04/12 04:53:11;;;;;;;14.82;6.85;;;;;;;9.41;59.98;100905.53;4897947;29;20044;-50
2022/04/12 04:55:42;;;;;;;11.63;6.20;;;;;;;9.41;59.77;100907.44;4898690;29;20047;-51
2022/04/12 04:58:10;;;;;;;11.25;6.65;;;;;;;9.35;60.20;100910.06;4898165;29;20048;-49
2022/04/12 05:00:38;;;;;;;10.48;6.30;;;;;;;9.28;60.66;100892.34;4897881;29;20049;-44
2022/04/12 05:03:06;;;;;;;13.57;7.30;;;;;;;9.23;60.65;100898.53;4898351;29;20555;-45
2022/04/12 05:05:33;;;;;;;11.88;7.53;;;;;;;9.21;60.42;100910.75;4906046;29;20059;-44
2022/04/12 05:08:02;;;;;;;12.55;6.60;;;;;;;9.18;60.89;100914.81;4898205;29;20045;-45
2022/04/12 05:10:32;;;;;;;10.90;6.43;;;;;;;9.19;60.88;100913.75;4897532;29;20117;-44
2022/04/12 05:13:01;;;;;;;10.38;5.95;;;;;;;9.25;61.14;100918.16;4897896;29;20068;-46
2022/04/12 05:15:28;;;;;;;12.02;6.30;;;;;;;9.28;60.68;100924.97;4897490;29;20112;-46
2022/04/12 05:18:02;;;;;;;10.13;6.10;;;;;;;9.33;60.61;100925.00;4916544;29;20385;-49
2022/04/12 05:20:30;;;;;;;12.38;6.70;;;;;;;9.38;60.83;100923.19;4915859;29;20044;-48
2022/04/12 05:22:58;;;;;;;13.98;6.45;;;;;;;9.41;60.51;100931.91;4913851;29;20044;-52
2022/04/12 05:25:25;;;;;;;10.68;6.57;;;;;;;9.45;60.85;100938.44;4897449;29;20080;-51
2022/04/12 05:27:53;;;;;;;14.05;7.13;;;;;;;9.46;61.03;100934.66;4897645;29;20508;-49
2022/04/12 05:30:21;;;;;;;11.82;7.00;;;;;;;9.45;60.66;100938.44;4913195;29;20050;-48
2022/04/12 05:32:49;;;;;;;14.07;6.72;;;;;;;9.45;61.38;100939.25;4908832;29;20056;-49
2022/04/12 05:35:16;;;;;;;13.25;7.40;;;;;;;9.43;61.14;100935.16;4896699;29;20077;-53
2022/04/12 05:37:47;;;;;;;13.20;7.43;;;;;;;9.39;61.25;100930.25;4897822;29;20096;-51
2022/04/12 05:40:15;;;;;;;11.85;6.57;;;;;;;9.39;61.76;100924.81;4897932;29;20223;-45
2022/04/12 05:42:43;;;;;;;11.88;5.88;;;;;;;9.43;61.44;100924.28;4905690;29;20518;-46
2022/04/12 05:45:12;;;;;;;19.48;6.57;;;;;;;9.47;61.49;100919.97;4897894;29;20556;-45
2022/04/12 05:47:50;;;;;;;12.52;7.15;;;;;;;9.47;60.73;100920.78;4897266;29;20041;-51
2022/04/12 05:50:19;;;;;;;19.13;7.30;;;;;;;9.49;61.23;100918.63;4896408;29;20041;-49
2022/04/12 05:52:49;;;;;;;15.82;7.13;;;;;;;9.52;60.91;100914.59;4899384;29;20052;-50
2022/04/12 05:55:18;;;;;;;14.00;7.00;;;;;;;9.54;60.82;100915.16;4222679;29;10000792;-49
2022/04/12 05:57:52;;;;;;;19.33;7.38;;;;;;;9.55;61.00;100919.53;4896723;29;20127;-51
2022/04/12 06:00:21;;;;;;;13.32;7.25;;;;;;;9.56;60.69;100926.59;4898044;29;20059;-44
2022/04/12 06:02:50;;;;;;;14.20;6.97;;;;;;;9.57;60.90;100936.38;4908894;29;20113;-46
2022/04/12 06:05:18;;;;;;;12.00;6.93;;;;;;;9.60;60.56;100941.34;4896214;29;20055;-51
2022/04/12 06:07:46;;;;;;;11.73;6.57;;;;;;;9.62;60.67;100943.78;4899517;29;20056;-48
2022/04/12 06:10:15;;;;;;;15.30;6.88;;;;;;;9.63;60.72;100940.81;4880865;29;20056;-48
2022/04/12 06:12:43;;;;;;;16.30;6.72;;;;;;;9.64;60.56;100934.28;4897454;29;20827;-46
2022/04/12 06:15:11;;;;;;;12.40;6.90;;;;;;;9.63;61.02;100932.66;4897653;29;20131;-45
2022/04/12 06:17:39;;;;;;;15.45;6.97;;;;;;;9.63;61.61;100931.84;4883244;29;20053;-46
2022/04/12 06:20:15;;;;;;;14.52;6.97;;;;;;;9.65;61.32;100937.84;4897049;29;20045;-49
2022/04/12 06:22:43;;;;;;;11.10;6.85;;;;;;;9.68;61.17;100937.31;4897571;29;20419;-50
2022/04/12 06:25:12;;;;;;;12.77;6.97;;;;;;;9.71;61.40;100925.91;4896298;29;20127;-49
2022/04/12 06:27:41;;;;;;;13.70;7.30;;;;;;;9.74;61.20;100936.25;4898517;29;20044;-50
2022/04/12 06:30:10;;;;;;;11.35;6.63;;;;;;;9.74;61.69;100934.38;4877177;29;20535;-49
2022/04/12 06:32:38;;;;;;;14.23;6.55;;;;;;;9.77;61.12;100933.84;4896065;29;20443;-50
2022/04/12 06:35:09;;;;;;;12.07;7.15;;;;;;;9.81;61.46;100936.84;4906016;29;20183;-49
2022/04/12 06:37:37;;;;;;;14.75;7.40;;;;;;;9.83;61.38;100937.44;4908606;29;20101;-52
2022/04/12 06:40:06;;;;;;;11.65;5.97;;;;;;;9.91;61.28;100926.06;4892006;29;20049;-53
2022/04/12 06:42:34;;;;;;;16.73;7.07;;;;;;;9.99;61.08;100932.94;4897268;29;20464;-51
2022/04/12 06:45:07;;;;;;;12.23;6.53;;;;;;;10.07;60.85;100924.25;4902090;29;20056;-49
2022/04/12 06:47:36;;;;;;;11.20;6.10;;;;;;;10.07;60.77;100924.25;4897233;29;20207;-50
2022/04/12 06:50:04;;;;;;;13.15;6.32;;;;;;;10.09;60.58;100922.09;4897422;29;20045;-49
2022/04/12 06:52:32;;;;;;;14.98;6.93;;;;;;;10.12;60.88;100924.28;4898957;29;20059;-50
2022/04/12 06:55:00;;;;;;;11.27;6.55;;;;;;;10.13;60.58;100925.94;4899898;29;20051;-51
2022/04/12 06:57:34;;;;;;;9.77;5.68;;;;;;;10.18;60.82;100931.44;4899905;29;20044;-51
2022/04/12 07:00:04;;;;;;;16.45;6.43;;;;;;;10.22;60.67;100934.44;4880504;29;20141;-48
2022/04/12 07:02:33;;;;;;;13.43;7.20;;;;;;;10.25;60.52;100920.31;4900407;29;20056;-44
2022/04/12 07:05:01;;;;;;;10.82;5.47;;;;;;;10.28;60.89;100916.22;4899193;29;20075;-44
2022/04/12 07:07:29;;;;;;;11.23;6.57;;;;;;;10.30;61.17;100909.47;4915533;29;20046;-50
2022/04/12 07:09:56;;;;;;;13.52;6.50;;;;;;;10.32;61.11;100910.03;4887108;29;20048;-54
2022/04/12 07:12:24;;;;;;;12.38;6.60;;;;;;;10.36;61.11;100916.56;4898107;29;20500;-49
2022/04/12 07:14:52;;;;;;;12.52;6.63;;;;;;;10.39;61.10;100916.06;4900182;29;20063;-53
2022/04/12 07:17:21;;;;;;;11.52;6.10;;;;;;;10.42;60.91;100914.72;4900323;29;20062;-52
2022/04/12 07:19:49;;;;;;;13.02;7.00;;;;;;;10.46;60.89;100910.34;4898397;29;20518;-48
2022/04/12 07:22:17;;;;;;;12.02;6.70;;;;;;;10.50;61.36;100908.75;4900801;29;20041;-48
2022/04/12 07:24:44;;;;;;;11.35;6.63;;;;;;;10.54;61.90;100909.88;4897628;29;20131;-48
2022/04/12 07:27:12;;;;;;;10.57;6.07;;;;;;;10.61;61.43;100912.34;4898139;29;20449;-50
2022/04/12 07:29:40;;;;;;;14.98;6.68;;;;;;;10.65;61.22;100913.44;4899617;29;20053;-50
2022/04/12 07:32:08;;;;;;;15.23;6.15;;;;;;;10.69;60.85;100920.00;4900241;29;20048;-50
2022/04/12 07:34:35;;;;;;;14.20;6.43;;;;;;;10.71;60.87;100922.47;4898525;29;20056;-49
2022/04/12 07:37:03;;;;;;;17.95;6.97;;;;;;;10.74;60.71;100917.28;4899181;29;20126;-49
2022/04/12 07:39:31;;;;;;;21.45;7.90;;;;;;;10.79;60.32;100919.22;4899199;29;20048;-50
2022/04/12 07:41:59;;;;;;;14.18;7.25;;;;;;;10.81;60.95;100927.97;4898961;29;20053;-48
2022/04/12 07:44:27;;;;;;;20.83;7.97;;;;;;;10.84;61.09;100916.50;4910154;29;20052;-48
2022/04/12 07:46:54;;;;;;;14.07;7.28;;;;;;;10.89;60.22;100913.78;4918189;29;20044;-48
2022/04/12 07:49:22;;;;;;;17.05;6.97;;;;;;;10.92;60.85;100907.84;4905754;29;20571;-49
2022/04/12 07:51:50;;;;;;;15.50;6.82;;;;;;;10.98;60.63;100904.00;4902668;29;20051;-49
2022/04/12 07:54:17;;;;;;;12.88;6.53;;;;;;;11.07;60.69;100915.22;4899128;29;20056;-48
2022/04/12 07:56:45;;;;;;;13.13;6.70;;;;;;;11.12;60.40;100922.59;4899013;29;20155;-48
2022/04/12 07:59:12;;;;;;;13.30;6.30;;;;;;;11.14;60.59;100917.72;4898998;29;20405;-47
2022/04/12 08:01:40;;;;;;;13.00;5.85;;;;;;;11.21;61.45;100921.00;4903519;29;20044;-49
2022/04/12 08:04:09;;;;;;;13.80;5.75;;;;;;;11.32;61.73;100921.81;4897574;29;20087;-48
2022/04/12 08:06:38;;;;;;;15.45;6.45;;;;;;;11.40;60.97;100913.09;4898341;29;20044;-49
2022/04/12 08:09:06;;;;;;;14.25;6.53;;;;;;;11.42;60.79;100917.19;4898034;29;20058;-49
2022/04/12 08:11:34;;;;;;;13.88;6.13;;;;;;;11.47;60.78;100914.47;4900008;29;20072;-51
2022/04/12 08:14:02;;;;;;;15.82;6.35;;;;;;;11.54;60.89;100911.47;4901983;29;20047;-49
2022/04/12 08:16:30;;;;;;;15.43;6.25;;;;;;;11.57;60.91;100901.91;4901476;29;20503;-49
2022/04/12 08:18:57;;;;;;;12.27;6.00;;;;;;;11.57;59.99;100908.22;4915105;29;20067;-49
2022/04/12 08:21:32;;;;;;;16.40;6.15;;;;;;;11.58;60.73;100909.84;4917447;29;20052;-51
2022/04/12 08:24:00;;;;;;;15.60;5.85;;;;;;;11.60;60.71;100912.31;4915909;29;20048;-53
2022/04/12 08:26:28;;;;;;;12.18;6.20;;;;;;;11.62;60.85;100921.84;4904410;29;20120;-53
2022/04/12 08:28:56;;;;;;;14.00;5.70;;;;;;;11.69;61.46;100916.94;4897804;29;20079;-53
2022/04/12 08:31:24;;;;;;;12.25;5.97;;;;;;;11.77;61.81;100912.03;4898452;29;20052;-52
2022/04/12 08:33:51;;;;;;;11.98;6.50;;;;;;;11.83;61.34;100911.72;4898630;29;20100;-52
2022/04/12 08:36:22;;;;;;;15.55;6.22;;;;;;;11.93;61.52;100909.03;4886223;29;20075;-53
2022/04/12 08:38:53;;;;;;;12.30;6.40;;;;;;;12.02;61.82;100903.81;4906629;29;20067;-49
2022/04/12 08:41:23;;;;;;;13.73;6.20;;;;;;;12.06;61.29;100904.91;4905593;29;20059;-49
2022/04/12 08:44:00;;;;;;;12.82;6.00;;;;;;;12.09;61.17;100906.28;4899398;29;20063;-49
2022/04/12 08:46:28;;;;;;;17.33;6.38;;;;;;;12.13;60.94;100899.16;4897996;29;20045;-49
2022/04/12 08:48:57;;;;;;;14.90;5.65;;;;;;;12.22;60.29;100902.97;4898010;29;20048;-49
2022/04/12 08:51:27;;;;;;;17.42;5.70;;;;;;;12.28;59.68;100907.31;4898624;29;20488;-49
2022/04/12 08:53:57;;;;;;;10.20;4.82;;;;;;;12.33;58.46;100899.09;4901617;29;20055;-52
2022/04/12 08:56:26;;;;;;;18.00;6.93;;;;;;;12.46;60.20;100888.69;4899449;29;20097;-51
2022/04/12 08:58:55;;;;;;;12.40;4.95;;;;;;;12.47;58.86;100887.59;4897546;29;20041;-50
2022/04/12 09:01:41;;;;;;;10.50;5.00;;;;;;;12.48;58.33;100875.56;4898129;29;20100;-50
2022/04/12 09:04:12;;;;;;;11.10;4.95;;;;;;;12.54;57.79;100877.19;4899169;29;20045;-51
2022/04/12 09:06:54;;;;;;;12.07;5.30;;;;;;;12.63;57.31;100880.13;4896437;29;20041;-50
2022/04/12 09:09:24;;;;;;;12.00;5.18;;;;;;;12.64;57.40;100876.31;4906580;29;20135;-51
2022/04/12 09:12:01;;;;;;;12.27;5.70;;;;;;;12.67;57.90;100879.28;4916920;29;20048;-52
2022/04/12 09:14:43;;;;;;;16.25;6.40;;;;;;;12.67;57.68;100876.56;4912369;29;20055;-45
2022/04/12 09:17:13;;;;;;;17.63;6.10;;;;;;;12.67;57.96;100871.09;4902298;29;20059;-51
2022/04/12 09:19:49;;;;;;;10.00;4.97;;;;;;;12.72;57.79;100876.56;4898018;29;20104;-51
2022/04/12 09:22:19;;;;;;;14.02;6.38;;;;;;;12.83;58.63;100873.78;4897741;29;20427;-49
2022/04/12 09:24:49;;;;;;;10.95;5.07;;;;;;;12.91;56.84;100881.38;4898053;29;20546;-51
2022/04/12 09:27:18;;;;;;;25.75;8.35;;;;;;;12.94;58.07;100878.06;4899378;29;20060;-52
2022/04/12 09:29:55;;;;;;;16.25;6.55;;;;;;;13.00;59.04;100874.22;4906793;29;20048;-50
2022/04/12 09:32:23;;;;;;;;;;;;;;;13.02;58.56;100871.19;4904116;29;20048;-50
2022/04/12 09:34:52;;;;;;;12.50;4.80;;;;;;;13.08;57.24;100865.41;4900503;29;19970;-52
2022/04/12 09:37:24;;;;;;;9.45;4.28;;;;;;;13.07;57.64;100861.03;4909489;29;20059;-51
2022/04/12 09:39:59;;;;;;;12.00;4.75;;;;;;;13.18;57.50;100857.13;4916831;29;20504;-50
2022/04/12 09:42:36;;;;;;;12.20;4.72;;;;;;;13.24;57.38;100841.50;4900990;29;20084;-49
2022/04/12 09:45:05;;;;;;;10.32;5.45;;;;;;;13.30;58.45;100855.97;4913896;29;20044;-49
2022/04/12 09:47:33;;;;;;;14.88;5.38;;;;;;;13.33;57.43;100839.81;4899820;29;20048;-44
2022/04/12 09:50:25;;;;;;;11.23;4.55;;;;;;;13.35;57.52;100837.63;4920315;29;20044;-49
2022/04/12 09:52:58;;;;;;;10.35;5.00;;;;;;;13.37;57.32;100840.03;4903389;29;20044;-48
2022/04/12 09:55:45;;;;;;;16.60;4.55;;;;;;;13.37;57.47;100846.34;4885826;29;20044;-49
2022/04/12 09:58:17;;;;;;;13.27;4.88;;;;;;;13.48;56.93;100836.13;4931460;29;20135;-50
2022/04/12 10:00:47;;;;;;;16.48;6.50;;;;;;;13.55;57.31;100842.09;4901247;29;20093;-47
2022/04/12 10:03:18;;;;;;;12.50;4.30;;;;;;;13.57;56.67;100848.09;4902098;29;20516;-52
2022/04/12 10:05:46;;;;;;;8.90;4.30;;;;;;;13.59;56.67;100845.09;4900488;29;20159;-50
2022/04/12 10:08:17;;;;;;;13.48;4.53;;;;;;;13.66;57.18;100842.00;4901006;29;20520;-49
2022/04/12 10:10:45;;;;;;;11.25;5.07;;;;;;;13.73;56.97;100847.94;4899961;29;20047;-51
2022/04/12 10:13:15;;;;;;;10.70;4.32;;;;;;;13.80;56.77;100853.91;4901949;29;20544;-49
2022/04/12 10:15:44;;;;;;;10.57;4.18;;;;;;;13.82;56.82;100846.22;4883562;29;20096;-48
2022/04/12 10:18:15;;;;;;;14.93;5.03;;;;;;;13.83;56.78;100845.13;4900917;29;20083;-49
2022/04/12 10:20:43;;;;;;;15.18;5.72;;;;;;;13.91;56.82;100849.16;4900975;29;20040;-51
2022/04/12 10:23:23;;;;;;;11.43;5.00;;;;;;;13.97;56.82;100835.09;4899746;29;20408;-53
2022/04/12 10:25:52;;;;;;;;;;;;;;;14.04;56.77;100834.75;4908211;29;20539;-47
2022/04/12 10:28:20;;;;;;;12.15;4.10;;;;;;;14.11;55.92;100828.94;4907881;29;19931;-49
2022/04/12 10:30:48;;;;;;;13.45;4.65;;;;;;;14.13;55.89;100824.78;4899398;29;20066;-50
2022/04/12 10:33:16;;;;;;;12.45;4.78;;;;;;;14.10;55.60;100821.84;4909083;29;20052;-49
2022/04/12 10:35:51;;;;;;;10.55;4.10;;;;;;;14.07;55.71;100809.53;4902731;29;20051;-49
2022/04/12 10:38:20;;;;;;;8.77;4.13;;;;;;;14.07;56.55;100810.34;4901172;29;20093;-49
2022/04/12 10:40:50;;;;;;;11.82;4.30;;;;;;;14.16;55.62;100801.47;4900485;29;20397;-49
2022/04/12 10:43:33;;;;;;;9.20;4.20;;;;;;;14.21;55.78;100798.66;4900600;29;20045;-51
2022/04/12 10:46:06;;;;;;;10.80;4.43;;;;;;;14.22;56.50;100798.38;4899942;29;20052;-52
2022/04/12 10:48:34;;;;;;;10.02;4.22;;;;;;;14.27;56.08;100795.56;4900346;29;20045;-47
2022/04/12 10:51:04;;;;;;;12.52;4.25;;;;;;;14.38;55.27;100793.53;4898724;29;20049;-52
2022/04/12 10:53:38;;;;;;;8.65;4.40;;;;;;;14.47;54.75;100796.41;4909021;29;20112;-48
2022/04/12 10:56:13;;;;;;;8.60;4.35;;;;;;;14.47;55.10;100801.91;4898532;29;20080;-50
2022/04/12 10:58:42;;;;;;;13.85;4.10;;;;;;;14.45;55.33;100804.91;4899601;29;20045;-49
2022/04/12 11:01:12;;;;;;;8.75;4.05;;;;;;;14.44;54.77;100800.56;4899971;29;20045;-52
2022/04/12 11:03:44;;;;;;;11.55;3.97;;;;;;;14.45;54.58;100799.44;4898917;29;20115;-52
2022/04/12 11:06:25;;;;;;;10.95;4.10;;;;;;;14.48;55.41;100793.38;4899519;29;20072;-53
2022/04/12 11:09:07;;;;;;;8.02;3.88;;;;;;;14.60;55.23;100783.91;4898900;29;20087;-52
2022/04/12 11:11:41;;;;;;;10.32;4.00;;;;;;;14.67;55.57;100776.13;4899530;29;20100;-54
2022/04/12 11:14:33;;;;;;;10.50;4.20;;;;;;;14.71;55.70;100774.44;4899634;29;20048;-50
2022/04/12 11:17:08;;;;;;;10.48;4.32;;;;;;;14.72;55.58;100776.09;4898910;29;20053;-53
2022/04/12 11:19:54;;;;;;;10.88;4.93;;;;;;;14.82;55.64;100781.41;4898495;29;20048;-48
2022/04/12 11:22:23;;;;;;;12.30;4.57;;;;;;;14.94;55.43;100788.38;4898095;29;20041;-45
2022/04/12 11:25:12;;;;;;;10.48;4.40;;;;;;;14.97;56.07;100787.78;4899542;29;20419;-49
2022/04/12 11:27:40;;;;;;;9.57;4.20;;;;;;;15.03;55.04;100800.28;4898274;29;20131;-50
2022/04/12 11:30:12;;;;;;;10.95;4.32;;;;;;;15.04;54.91;100793.69;4899424;29;20051;-47
2022/04/12 11:32:41;;;;;;;11.52;4.70;;;;;;;15.08;54.38;100800.19;4898567;29;20045;-49
2022/04/12 11:35:09;;;;;;;11.30;4.22;;;;;;;15.13;54.87;100781.75;4899609;29;20052;-51